THY3UN LTFM-EGLL
Flight info
| Callsign | THY3UN |
|---|---|
| Flight time | N/A |
| Altitude | 40000 |
| Route | TUDBU1D/35L TUDBU Q26 ETUBA DCT NAVOD DCT INVED DCT BEGLA DCT DEXIT DCT INBED DCT BOMBI DCT ADKUV DCT BUB L608 LOGAN |
| Aircraft | A359/H-SDE2E3GHIJ3J4J5LM1ORWXY/LB1D1 |
Departure
| Time | 2026-05-04 12:28 |
|---|---|
| Airport | İstanbul Airport (LTFM) |
Arrival
| Time | N/A |
|---|---|
| Airport | London Heathrow Airport (EGLL) |
| Time | Latitude | Longitude | Altitude | Speed | Heading |
|---|---|---|---|---|---|
| 2026-05-04 11:58 | 41.26733 | 28.74117 | 320 ft | 0 kts | 90° |
| 2026-05-04 12:14 | 41.26733 | 28.74107 | 320 ft | 2 kts | 88° |
| 2026-05-04 12:15 | 41.26732 | 28.74085 | 317 ft | 2 kts | 83° |
| 2026-05-04 12:15 | 41.26729 | 28.74064 | 317 ft | 2 kts | 74° |
| 2026-05-04 12:15 | 41.26723 | 28.74044 | 317 ft | 2 kts | 58° |
| 2026-05-04 12:15 | 41.26712 | 28.74027 | 316 ft | 2 kts | 32° |
| 2026-05-04 12:16 | 41.26697 | 28.74018 | 317 ft | 2 kts | 9° |
| 2026-05-04 12:16 | 41.26686 | 28.74017 | 318 ft | 1 kts | 359° |
| 2026-05-04 12:16 | 41.26684 | 28.74017 | 317 ft | 0 kts | 359° |
| 2026-05-04 12:20 | 41.26688 | 28.74017 | 318 ft | 2 kts | 359° |
| 2026-05-04 12:20 | 41.26728 | 28.74016 | 317 ft | 9 kts | 359° |
| 2026-05-04 12:21 | 41.26804 | 28.74015 | 317 ft | 12 kts | 359° |
| 2026-05-04 12:21 | 41.26892 | 28.74013 | 317 ft | 13 kts | 359° |
| 2026-05-04 12:21 | 41.26992 | 28.74012 | 317 ft | 13 kts | 359° |
| 2026-05-04 12:21 | 41.27048 | 28.73948 | 315 ft | 12 kts | 278° |
| 2026-05-04 12:22 | 41.27049 | 28.73822 | 317 ft | 15 kts | 269° |
| 2026-05-04 12:22 | 41.27048 | 28.73679 | 314 ft | 17 kts | 269° |
| 2026-05-04 12:22 | 41.27046 | 28.73517 | 314 ft | 18 kts | 269° |
| 2026-05-04 12:22 | 41.27044 | 28.73340 | 317 ft | 20 kts | 269° |
| 2026-05-04 12:23 | 41.27041 | 28.73144 | 313 ft | 23 kts | 269° |
| 2026-05-04 12:23 | 41.27032 | 28.73013 | 313 ft | 11 kts | 239° |
| 2026-05-04 12:23 | 41.26957 | 28.72988 | 314 ft | 12 kts | 179° |
| 2026-05-04 12:23 | 41.26863 | 28.72990 | 314 ft | 15 kts | 179° |
| 2026-05-04 12:24 | 41.26765 | 28.72992 | 316 ft | 9 kts | 179° |
| 2026-05-04 12:24 | 41.26724 | 28.72959 | 314 ft | 5 kts | 243° |
| 2026-05-04 12:24 | 41.26718 | 28.72912 | 315 ft | 0 kts | 266° |
| 2026-05-04 12:25 | 41.26717 | 28.72896 | 315 ft | 6 kts | 267° |
| 2026-05-04 12:26 | 41.26716 | 28.72808 | 315 ft | 13 kts | 269° |
| 2026-05-04 12:26 | 41.26714 | 28.72667 | 316 ft | 17 kts | 269° |
| 2026-05-04 12:26 | 41.26721 | 28.72543 | 316 ft | 11 kts | 301° |
| 2026-05-04 12:26 | 41.26782 | 28.72516 | 316 ft | 0 kts | 358° |
| 2026-05-04 12:27 | 41.26783 | 28.72516 | 316 ft | 0 kts | 358° |
| 2026-05-04 12:27 | 41.26956 | 28.72507 | 312 ft | 63 kts | 358° |
| 2026-05-04 12:27 | 41.27618 | 28.72495 | 295 ft | 124 kts | 358° |
| 2026-05-04 12:27 | 41.28658 | 28.72463 | 276 ft | 172 kts | 3° |
| 2026-05-04 12:28 | 41.29879 | 28.72500 | 1050 ft | 164 kts | 356° |
| 2026-05-04 12:28 | 41.30960 | 28.72478 | 2166 ft | 150 kts | 359° |
| 2026-05-04 12:28 | 41.32041 | 28.72480 | 2610 ft | 164 kts | 0° |
| 2026-05-04 12:28 | 41.33256 | 28.72489 | 2897 ft | 186 kts | 360° |
| 2026-05-04 12:29 | 41.34624 | 28.72500 | 3163 ft | 208 kts | 0° |
| 2026-05-04 12:29 | 41.36152 | 28.72513 | 3508 ft | 226 kts | 360° |
| 2026-05-04 12:29 | 41.37726 | 28.72427 | 4130 ft | 232 kts | 352° |
| 2026-05-04 12:29 | 41.39289 | 28.71785 | 4884 ft | 235 kts | 335° |
| 2026-05-04 12:30 | 41.40588 | 28.70439 | 5605 ft | 241 kts | 318° |
| 2026-05-04 12:30 | 41.41707 | 28.68753 | 6332 ft | 244 kts | 314° |
| 2026-05-04 12:30 | 41.42788 | 28.66994 | 7058 ft | 246 kts | 313° |
| 2026-05-04 12:30 | 41.43872 | 28.65212 | 7735 ft | 249 kts | 314° |
| 2026-05-04 12:31 | 41.44975 | 28.63401 | 8393 ft | 253 kts | 314° |
| 2026-05-04 12:31 | 41.46088 | 28.61575 | 9110 ft | 255 kts | 314° |
| 2026-05-04 12:31 | 41.47219 | 28.59724 | 9794 ft | 259 kts | 314° |
| 2026-05-04 12:31 | 41.48369 | 28.57840 | 10357 ft | 267 kts | 314° |
| 2026-05-04 12:32 | 41.49596 | 28.55841 | 10639 ft | 284 kts | 314° |
| 2026-05-04 12:32 | 41.52233 | 28.51532 | 11052 ft | 317 kts | 314° |
| 2026-05-04 12:32 | 41.53658 | 28.49191 | 11506 ft | 324 kts | 315° |
| 2026-05-04 12:33 | 41.55063 | 28.46876 | 12050 ft | 328 kts | 315° |
| 2026-05-04 12:33 | 41.56553 | 28.44422 | 12614 ft | 332 kts | 315° |
| 2026-05-04 12:33 | 41.57998 | 28.42041 | 13159 ft | 335 kts | 316° |
| 2026-05-04 12:33 | 41.59472 | 28.39612 | 13707 ft | 338 kts | 316° |
| 2026-05-04 12:34 | 41.60963 | 28.37156 | 14158 ft | 342 kts | 316° |
| 2026-05-04 12:34 | 41.62490 | 28.34639 | 14625 ft | 346 kts | 316° |
| 2026-05-04 12:34 | 41.63520 | 28.32939 | 14923 ft | 349 kts | 316° |
| 2026-05-04 12:34 | 41.65052 | 28.30409 | 15376 ft | 352 kts | 315° |
| 2026-05-04 12:35 | 41.66597 | 28.27853 | 15902 ft | 353 kts | 315° |
| 2026-05-04 12:35 | 41.68148 | 28.25287 | 16348 ft | 357 kts | 315° |
| 2026-05-04 12:35 | 41.69719 | 28.22688 | 16763 ft | 361 kts | 314° |
| 2026-05-04 12:35 | 41.71304 | 28.20060 | 17196 ft | 365 kts | 314° |
| 2026-05-04 12:36 | 41.72909 | 28.17399 | 17632 ft | 369 kts | 314° |
| 2026-05-04 12:36 | 41.74525 | 28.14716 | 18066 ft | 372 kts | 314° |
| 2026-05-04 12:36 | 41.76156 | 28.12006 | 18464 ft | 376 kts | 314° |
| 2026-05-04 12:36 | 41.77800 | 28.09272 | 18830 ft | 379 kts | 314° |
| 2026-05-04 12:37 | 41.79457 | 28.06512 | 19212 ft | 382 kts | 314° |
| 2026-05-04 12:37 | 41.81128 | 28.03728 | 19592 ft | 384 kts | 314° |
| 2026-05-04 12:37 | 41.82815 | 28.00915 | 19920 ft | 388 kts | 314° |
| 2026-05-04 12:37 | 41.84536 | 27.98044 | 20249 ft | 392 kts | 314° |
| 2026-05-04 12:38 | 41.86251 | 27.95178 | 20647 ft | 395 kts | 314° |
| 2026-05-04 12:38 | 41.87974 | 27.92296 | 21010 ft | 397 kts | 314° |
| 2026-05-04 12:38 | 41.89709 | 27.89392 | 21375 ft | 400 kts | 314° |
| 2026-05-04 12:38 | 41.91451 | 27.86472 | 21734 ft | 403 kts | 314° |
| 2026-05-04 12:39 | 41.93190 | 27.83557 | 22062 ft | 405 kts | 314° |
| 2026-05-04 12:39 | 41.94980 | 27.80554 | 22398 ft | 409 kts | 314° |
| 2026-05-04 12:39 | 41.96799 | 27.77610 | 22734 ft | 409 kts | 317° |
| 2026-05-04 12:39 | 41.98725 | 27.74790 | 23071 ft | 410 kts | 319° |
| 2026-05-04 12:40 | 42.00716 | 27.72026 | 23372 ft | 412 kts | 320° |
| 2026-05-04 12:40 | 42.02741 | 27.69283 | 23675 ft | 414 kts | 320° |
| 2026-05-04 12:40 | 42.04786 | 27.66530 | 23966 ft | 416 kts | 320° |
| 2026-05-04 12:40 | 42.06835 | 27.63763 | 24236 ft | 418 kts | 320° |
| 2026-05-04 12:41 | 42.08886 | 27.60980 | 24500 ft | 420 kts | 320° |
| 2026-05-04 12:41 | 42.10943 | 27.58171 | 24788 ft | 422 kts | 320° |
| 2026-05-04 12:41 | 42.13034 | 27.55305 | 25040 ft | 424 kts | 319° |
| 2026-05-04 12:41 | 42.15106 | 27.52454 | 25270 ft | 427 kts | 319° |
| 2026-05-04 12:42 | 42.17192 | 27.49581 | 25524 ft | 430 kts | 319° |
| 2026-05-04 12:42 | 42.19289 | 27.46688 | 25823 ft | 431 kts | 319° |
| 2026-05-04 12:42 | 42.21418 | 27.43747 | 26139 ft | 433 kts | 319° |
| 2026-05-04 12:42 | 42.23526 | 27.40834 | 26435 ft | 435 kts | 319° |
| 2026-05-04 12:43 | 42.25648 | 27.37900 | 26681 ft | 438 kts | 319° |
| 2026-05-04 12:43 | 42.27782 | 27.34947 | 26982 ft | 441 kts | 319° |
| 2026-05-04 12:43 | 42.29938 | 27.31959 | 27316 ft | 443 kts | 319° |
| 2026-05-04 12:43 | 42.32094 | 27.28968 | 27641 ft | 446 kts | 319° |
| 2026-05-04 12:44 | 42.34263 | 27.25954 | 27993 ft | 448 kts | 319° |
| 2026-05-04 12:44 | 42.36446 | 27.22920 | 28332 ft | 451 kts | 319° |
| 2026-05-04 12:44 | 42.38638 | 27.19870 | 28687 ft | 454 kts | 319° |
| 2026-05-04 12:44 | 42.40871 | 27.16759 | 29036 ft | 456 kts | 318° |
| 2026-05-04 12:45 | 42.43094 | 27.13661 | 29397 ft | 459 kts | 318° |
| 2026-05-04 12:45 | 42.45290 | 27.10595 | 29758 ft | 461 kts | 318° |
| 2026-05-04 12:45 | 42.47563 | 27.07417 | 30141 ft | 464 kts | 317° |
| 2026-05-04 12:45 | 42.49813 | 27.04268 | 30443 ft | 467 kts | 317° |
| 2026-05-04 12:46 | 42.52077 | 27.01096 | 30759 ft | 469 kts | 317° |
| 2026-05-04 12:46 | 42.54353 | 26.97903 | 31072 ft | 472 kts | 317° |
| 2026-05-04 12:46 | 42.56640 | 26.94693 | 31394 ft | 474 kts | 317° |
| 2026-05-04 12:46 | 42.58936 | 26.91467 | 31694 ft | 477 kts | 317° |
| 2026-05-04 12:47 | 42.61248 | 26.88214 | 32000 ft | 480 kts | 317° |
| 2026-05-04 12:47 | 42.63571 | 26.84943 | 32297 ft | 482 kts | 317° |
| 2026-05-04 12:47 | 42.65906 | 26.81649 | 32563 ft | 485 kts | 317° |
| 2026-05-04 12:47 | 42.68249 | 26.78340 | 32843 ft | 488 kts | 316° |
| 2026-05-04 12:48 | 42.70608 | 26.75006 | 33118 ft | 490 kts | 316° |
| 2026-05-04 12:48 | 42.72974 | 26.71657 | 33387 ft | 493 kts | 316° |
| 2026-05-04 12:48 | 42.75388 | 26.68239 | 33601 ft | 496 kts | 316° |
| 2026-05-04 12:48 | 42.77755 | 26.64882 | 33877 ft | 498 kts | 316° |
| 2026-05-04 12:49 | 42.80169 | 26.61392 | 34109 ft | 501 kts | 313° |
| 2026-05-04 12:49 | 42.82310 | 26.57626 | 34376 ft | 504 kts | 307° |
| 2026-05-04 12:49 | 42.84276 | 26.53740 | 34667 ft | 504 kts | 306° |
| 2026-05-04 12:49 | 42.86214 | 26.49761 | 34997 ft | 504 kts | 305° |
| 2026-05-04 12:50 | 42.88126 | 26.45754 | 35305 ft | 503 kts | 304° |
| 2026-05-04 12:50 | 42.90021 | 26.41745 | 35744 ft | 499 kts | 304° |
| 2026-05-04 12:50 | 42.91913 | 26.37730 | 36245 ft | 495 kts | 304° |
| 2026-05-04 12:50 | 42.93765 | 26.33797 | 36609 ft | 494 kts | 305° |
| 2026-05-04 12:51 | 42.95607 | 26.29896 | 36804 ft | 496 kts | 304° |
| 2026-05-04 12:51 | 42.97467 | 26.25957 | 37317 ft | 490 kts | 304° |
| 2026-05-04 12:51 | 42.99333 | 26.22004 | 37744 ft | 487 kts | 304° |
| 2026-05-04 12:51 | 43.01141 | 26.18175 | 37983 ft | 487 kts | 304° |
| 2026-05-04 12:52 | 43.03005 | 26.14224 | 38351 ft | 485 kts | 305° |
| 2026-05-04 12:52 | 43.04825 | 26.10362 | 38674 ft | 483 kts | 304° |
| 2026-05-04 12:52 | 43.06645 | 26.06496 | 38936 ft | 481 kts | 304° |
| 2026-05-04 12:52 | 43.08454 | 26.02642 | 39125 ft | 481 kts | 304° |
| 2026-05-04 12:53 | 43.10263 | 25.98782 | 39289 ft | 481 kts | 305° |
| 2026-05-04 12:53 | 43.12072 | 25.94917 | 39498 ft | 481 kts | 305° |
| 2026-05-04 12:53 | 43.13875 | 25.91065 | 39653 ft | 481 kts | 304° |
| 2026-05-04 12:54 | 43.17490 | 25.83319 | 39907 ft | 483 kts | 304° |
| 2026-05-04 12:54 | 43.19320 | 25.79389 | 40047 ft | 483 kts | 304° |
| 2026-05-04 12:54 | 43.21132 | 25.75498 | 40076 ft | 485 kts | 304° |
| 2026-05-04 12:55 | 43.24758 | 25.67692 | 40073 ft | 486 kts | 304° |
| 2026-05-04 12:55 | 43.28403 | 25.59819 | 40069 ft | 485 kts | 304° |
| 2026-05-04 12:56 | 43.32046 | 25.51932 | 40064 ft | 485 kts | 304° |
| 2026-05-04 12:56 | 43.35655 | 25.44102 | 40063 ft | 485 kts | 304° |
| 2026-05-04 12:57 | 43.38650 | 25.37586 | 40057 ft | 485 kts | 304° |
| 2026-05-04 12:57 | 43.42255 | 25.29723 | 40059 ft | 486 kts | 303° |
| 2026-05-04 12:58 | 43.45879 | 25.21798 | 40057 ft | 486 kts | 303° |
| 2026-05-04 12:58 | 43.49480 | 25.13898 | 40056 ft | 486 kts | 303° |
| 2026-05-04 12:59 | 43.53068 | 25.06007 | 40053 ft | 487 kts | 303° |
| 2026-05-04 12:59 | 43.56663 | 24.98080 | 40059 ft | 487 kts | 303° |
| 2026-05-04 13:00 | 43.60249 | 24.90151 | 40061 ft | 487 kts | 303° |
| 2026-05-04 13:00 | 43.63833 | 24.82205 | 40062 ft | 487 kts | 303° |
| 2026-05-04 13:01 | 43.67411 | 24.74250 | 40063 ft | 488 kts | 303° |
| 2026-05-04 13:01 | 43.70993 | 24.66267 | 40061 ft | 488 kts | 303° |
| 2026-05-04 13:02 | 43.74575 | 24.58291 | 40057 ft | 488 kts | 304° |
| 2026-05-04 13:02 | 43.78737 | 24.50894 | 40054 ft | 486 kts | 311° |
| 2026-05-04 13:03 | 43.83119 | 24.43748 | 40056 ft | 484 kts | 312° |
| 2026-05-04 13:03 | 43.87539 | 24.36634 | 40056 ft | 483 kts | 312° |
| 2026-05-04 13:04 | 43.91916 | 24.29560 | 40057 ft | 483 kts | 312° |
| 2026-05-04 13:04 | 43.96251 | 24.22512 | 40064 ft | 482 kts | 312° |
| 2026-05-04 13:05 | 44.00659 | 24.15319 | 40047 ft | 481 kts | 312° |
| 2026-05-04 13:05 | 44.04998 | 24.08219 | 40049 ft | 481 kts | 311° |
| 2026-05-04 13:06 | 44.09367 | 24.01053 | 40030 ft | 481 kts | 311° |
| 2026-05-04 13:06 | 44.13697 | 23.93933 | 40043 ft | 479 kts | 311° |
| 2026-05-04 13:07 | 44.18004 | 23.86834 | 40049 ft | 478 kts | 311° |
| 2026-05-04 13:07 | 44.22295 | 23.79746 | 40046 ft | 478 kts | 311° |
| 2026-05-04 13:08 | 44.26582 | 23.72646 | 40038 ft | 478 kts | 311° |
| 2026-05-04 13:08 | 44.30812 | 23.65622 | 40048 ft | 478 kts | 311° |
| 2026-05-04 13:09 | 44.35229 | 23.58271 | 40047 ft | 478 kts | 311° |
| 2026-05-04 13:09 | 44.39469 | 23.51195 | 40045 ft | 478 kts | 311° |
| 2026-05-04 13:10 | 44.43754 | 23.44026 | 40038 ft | 478 kts | 312° |
| 2026-05-04 13:10 | 44.48025 | 23.36863 | 40046 ft | 479 kts | 312° |
| 2026-05-04 13:11 | 44.52347 | 23.29597 | 40047 ft | 479 kts | 311° |
| 2026-05-04 13:11 | 44.56643 | 23.22356 | 40040 ft | 479 kts | 311° |
| 2026-05-04 13:12 | 44.60891 | 23.15176 | 40042 ft | 478 kts | 311° |
| 2026-05-04 13:12 | 44.65107 | 23.08033 | 40043 ft | 478 kts | 311° |
| 2026-05-04 13:13 | 44.69351 | 23.00825 | 40041 ft | 478 kts | 311° |
| 2026-05-04 13:13 | 44.72951 | 22.94696 | 40043 ft | 478 kts | 311° |
| 2026-05-04 13:14 | 44.77184 | 22.87474 | 40044 ft | 477 kts | 311° |
| 2026-05-04 13:14 | 44.81406 | 22.80250 | 40046 ft | 477 kts | 311° |
| 2026-05-04 13:15 | 44.85627 | 22.73009 | 40052 ft | 477 kts | 311° |
| 2026-05-04 13:15 | 44.89832 | 22.65781 | 40057 ft | 478 kts | 311° |
| 2026-05-04 13:16 | 44.94126 | 22.58378 | 40065 ft | 476 kts | 311° |
| 2026-05-04 13:16 | 44.98395 | 22.50998 | 40078 ft | 476 kts | 311° |
| 2026-05-04 13:17 | 45.02650 | 22.43624 | 40086 ft | 476 kts | 311° |
| 2026-05-04 13:17 | 45.06889 | 22.36259 | 40080 ft | 476 kts | 311° |
| 2026-05-04 13:18 | 45.11077 | 22.28963 | 40096 ft | 478 kts | 311° |
| 2026-05-04 13:18 | 45.15305 | 22.21580 | 40094 ft | 478 kts | 311° |
| 2026-05-04 13:19 | 45.19491 | 22.14250 | 40098 ft | 478 kts | 311° |
| 2026-05-04 13:19 | 45.23672 | 22.06909 | 40105 ft | 476 kts | 311° |
| 2026-05-04 13:20 | 45.27806 | 21.99632 | 40106 ft | 475 kts | 310° |
| 2026-05-04 13:20 | 45.31958 | 21.92306 | 40110 ft | 475 kts | 310° |
| 2026-05-04 13:21 | 45.36093 | 21.84991 | 40111 ft | 475 kts | 310° |
| 2026-05-04 13:21 | 45.40256 | 21.77606 | 40105 ft | 474 kts | 310° |
| 2026-05-04 13:22 | 45.44372 | 21.70285 | 40109 ft | 473 kts | 310° |
| 2026-05-04 13:22 | 45.48471 | 21.62976 | 40112 ft | 473 kts | 310° |
| 2026-05-04 13:23 | 45.52578 | 21.55635 | 40114 ft | 473 kts | 310° |
| 2026-05-04 13:23 | 45.56661 | 21.48318 | 40108 ft | 473 kts | 310° |
| 2026-05-04 13:24 | 45.60128 | 21.42088 | 40111 ft | 472 kts | 310° |
| 2026-05-04 13:24 | 45.64217 | 21.34722 | 40114 ft | 472 kts | 310° |
| 2026-05-04 13:25 | 45.70440 | 21.23477 | 40104 ft | 472 kts | 310° |
| 2026-05-04 13:25 | 45.74567 | 21.15996 | 40114 ft | 471 kts | 309° |
| 2026-05-04 13:26 | 45.78718 | 21.08449 | 40113 ft | 471 kts | 309° |
| 2026-05-04 13:26 | 45.82762 | 21.01078 | 40113 ft | 471 kts | 309° |
| 2026-05-04 13:27 | 45.86816 | 20.93670 | 40102 ft | 472 kts | 309° |
| 2026-05-04 13:27 | 45.90859 | 20.86261 | 40114 ft | 472 kts | 309° |
| 2026-05-04 13:28 | 45.94931 | 20.78781 | 40115 ft | 472 kts | 309° |
| 2026-05-04 13:28 | 45.98998 | 20.71288 | 40101 ft | 472 kts | 309° |
| 2026-05-04 13:29 | 46.03038 | 20.63825 | 40109 ft | 472 kts | 309° |
| 2026-05-04 13:29 | 46.07088 | 20.56326 | 40107 ft | 470 kts | 309° |
| 2026-05-04 13:30 | 46.11096 | 20.48883 | 40104 ft | 470 kts | 309° |
| 2026-05-04 13:30 | 46.15102 | 20.41423 | 40106 ft | 470 kts | 309° |
| 2026-05-04 13:31 | 46.19099 | 20.33986 | 40105 ft | 470 kts | 309° |
| 2026-05-04 13:31 | 46.23115 | 20.26527 | 40096 ft | 469 kts | 309° |
| 2026-05-04 13:32 | 46.27194 | 20.18930 | 40100 ft | 469 kts | 309° |
| 2026-05-04 13:32 | 46.31240 | 20.11369 | 40099 ft | 469 kts | 309° |
| 2026-05-04 13:33 | 46.34577 | 20.05115 | 40098 ft | 469 kts | 309° |
| 2026-05-04 13:33 | 46.38588 | 19.97579 | 40096 ft | 469 kts | 308° |
| 2026-05-04 13:34 | 46.42562 | 19.90093 | 40093 ft | 469 kts | 308° |
| 2026-05-04 13:34 | 46.46534 | 19.82590 | 40088 ft | 469 kts | 308° |
| 2026-05-04 13:35 | 46.52479 | 19.71324 | 40080 ft | 469 kts | 308° |
| 2026-05-04 13:36 | 46.56438 | 19.63795 | 40086 ft | 468 kts | 308° |
| 2026-05-04 13:36 | 46.60387 | 19.56265 | 40080 ft | 468 kts | 308° |
| 2026-05-04 13:37 | 46.64323 | 19.48740 | 40083 ft | 468 kts | 308° |
| 2026-05-04 13:37 | 46.68290 | 19.41134 | 40078 ft | 468 kts | 308° |
| 2026-05-04 13:38 | 46.72249 | 19.33524 | 40079 ft | 468 kts | 308° |
| 2026-05-04 13:38 | 46.76199 | 19.25909 | 40078 ft | 468 kts | 308° |
| 2026-05-04 13:39 | 46.80154 | 19.18264 | 40077 ft | 468 kts | 308° |
| 2026-05-04 13:39 | 46.84095 | 19.10626 | 40076 ft | 468 kts | 308° |
| 2026-05-04 13:40 | 46.88009 | 19.03020 | 40070 ft | 467 kts | 307° |
| 2026-05-04 13:40 | 46.91909 | 18.95419 | 40071 ft | 467 kts | 307° |
| 2026-05-04 13:41 | 46.95821 | 18.87773 | 40072 ft | 466 kts | 307° |
| 2026-05-04 13:41 | 46.99726 | 18.80118 | 40070 ft | 467 kts | 307° |
| 2026-05-04 13:42 | 47.05742 | 18.68288 | 40066 ft | 466 kts | 307° |
| 2026-05-04 13:42 | 47.09612 | 18.60649 | 40067 ft | 465 kts | 307° |
| 2026-05-04 13:43 | 47.12841 | 18.54261 | 40064 ft | 466 kts | 307° |
| 2026-05-04 13:43 | 47.16698 | 18.46608 | 40064 ft | 465 kts | 306° |
| 2026-05-04 13:44 | 47.20536 | 18.38974 | 40057 ft | 463 kts | 306° |
| 2026-05-04 13:44 | 47.24360 | 18.31345 | 40061 ft | 464 kts | 306° |
| 2026-05-04 13:45 | 47.28273 | 18.23520 | 40055 ft | 464 kts | 306° |
| 2026-05-04 13:45 | 47.32074 | 18.15896 | 40050 ft | 461 kts | 306° |
| 2026-05-04 13:46 | 47.35901 | 18.08196 | 40050 ft | 464 kts | 306° |
| 2026-05-04 13:46 | 47.39708 | 18.00517 | 40042 ft | 463 kts | 306° |
| 2026-05-04 13:47 | 47.43514 | 17.92818 | 40043 ft | 464 kts | 306° |
| 2026-05-04 13:47 | 47.47318 | 17.85101 | 40034 ft | 465 kts | 306° |
| 2026-05-04 13:48 | 47.51173 | 17.77262 | 40045 ft | 464 kts | 306° |
| 2026-05-04 13:48 | 47.54980 | 17.69496 | 40047 ft | 462 kts | 306° |
| 2026-05-04 13:49 | 47.58658 | 17.61972 | 40043 ft | 462 kts | 306° |
| 2026-05-04 13:49 | 47.62525 | 17.54037 | 40037 ft | 462 kts | 306° |
| 2026-05-04 13:50 | 47.66287 | 17.46296 | 40027 ft | 462 kts | 306° |
| 2026-05-04 13:50 | 47.70042 | 17.38551 | 40014 ft | 460 kts | 305° |
| 2026-05-04 13:51 | 47.73769 | 17.30841 | 40002 ft | 459 kts | 305° |
| 2026-05-04 13:51 | 47.77521 | 17.23055 | 40002 ft | 461 kts | 305° |
| 2026-05-04 13:52 | 47.82975 | 17.11207 | 39990 ft | 462 kts | 298° |
| 2026-05-04 13:53 | 47.85836 | 17.02217 | 39989 ft | 460 kts | 294° |
| 2026-05-04 13:53 | 47.88373 | 16.93543 | 39990 ft | 460 kts | 293° |
| 2026-05-04 13:54 | 47.92171 | 16.80356 | 39988 ft | 459 kts | 293° |
| 2026-05-04 13:55 | 47.95567 | 16.68588 | 39988 ft | 459 kts | 293° |
| 2026-05-04 13:55 | 47.99350 | 16.55447 | 39990 ft | 461 kts | 293° |
| 2026-05-04 13:56 | 48.01869 | 16.46656 | 39992 ft | 460 kts | 292° |
| 2026-05-04 13:57 | 48.05644 | 16.33418 | 39962 ft | 459 kts | 292° |
| 2026-05-04 13:58 | 48.10665 | 16.15697 | 39952 ft | 461 kts | 292° |
| 2026-05-04 13:58 | 48.14391 | 16.02458 | 39949 ft | 460 kts | 292° |
| 2026-05-04 13:59 | 48.16933 | 15.93386 | 39951 ft | 460 kts | 292° |
| 2026-05-04 14:00 | 48.20631 | 15.80127 | 39947 ft | 459 kts | 292° |
| 2026-05-04 14:00 | 48.24307 | 15.66871 | 39946 ft | 458 kts | 291° |
| 2026-05-04 14:01 | 48.26747 | 15.58034 | 39946 ft | 458 kts | 291° |
| 2026-05-04 14:02 | 48.30418 | 15.44670 | 39952 ft | 460 kts | 291° |
| 2026-05-04 14:02 | 48.32843 | 15.35801 | 39949 ft | 460 kts | 291° |
| 2026-05-04 14:03 | 48.35260 | 15.26929 | 39953 ft | 460 kts | 291° |
| 2026-05-04 14:03 | 48.37696 | 15.17955 | 39951 ft | 461 kts | 291° |
| 2026-05-04 14:04 | 48.41319 | 15.04539 | 39952 ft | 462 kts | 291° |
| 2026-05-04 14:04 | 48.43724 | 14.95594 | 39951 ft | 462 kts | 290° |
| 2026-05-04 14:05 | 48.47327 | 14.82127 | 39958 ft | 462 kts | 290° |
| 2026-05-04 14:06 | 48.49735 | 14.73084 | 39955 ft | 462 kts | 290° |
| 2026-05-04 14:06 | 48.52121 | 14.64086 | 39957 ft | 462 kts | 290° |
| 2026-05-04 14:07 | 48.54533 | 14.54955 | 39954 ft | 462 kts | 290° |
| 2026-05-04 14:07 | 48.56906 | 14.45935 | 39953 ft | 462 kts | 290° |
| 2026-05-04 14:08 | 48.59272 | 14.36912 | 39953 ft | 461 kts | 290° |
| 2026-05-04 14:08 | 48.61642 | 14.27834 | 39957 ft | 461 kts | 289° |
| 2026-05-04 14:09 | 48.65170 | 14.14252 | 39953 ft | 461 kts | 289° |
| 2026-05-04 14:10 | 48.68277 | 14.02228 | 39945 ft | 460 kts | 289° |
| 2026-05-04 14:10 | 48.70700 | 13.92804 | 39947 ft | 461 kts | 289° |
| 2026-05-04 14:11 | 48.73074 | 13.83532 | 39955 ft | 461 kts | 289° |
| 2026-05-04 14:11 | 48.76568 | 13.69819 | 39940 ft | 461 kts | 289° |
| 2026-05-04 14:12 | 48.78790 | 13.60709 | 39945 ft | 461 kts | 288° |
| 2026-05-04 14:13 | 48.82037 | 13.46940 | 39944 ft | 461 kts | 288° |
| 2026-05-04 14:13 | 48.84197 | 13.37800 | 39949 ft | 461 kts | 288° |
| 2026-05-04 14:14 | 48.86364 | 13.28632 | 39947 ft | 461 kts | 288° |
| 2026-05-04 14:14 | 48.89607 | 13.14856 | 39954 ft | 461 kts | 287° |
| 2026-05-04 14:15 | 48.93903 | 12.96463 | 39951 ft | 461 kts | 287° |
| 2026-05-04 14:16 | 48.97104 | 12.82654 | 39957 ft | 461 kts | 287° |
| 2026-05-04 14:17 | 49.00288 | 12.68830 | 39961 ft | 461 kts | 287° |
| 2026-05-04 14:18 | 49.03471 | 12.54917 | 39958 ft | 461 kts | 287° |
| 2026-05-04 14:19 | 49.07690 | 12.36339 | 39952 ft | 462 kts | 287° |
| 2026-05-04 14:19 | 49.09794 | 12.27009 | 39952 ft | 462 kts | 287° |
| 2026-05-04 14:20 | 49.11879 | 12.17728 | 39949 ft | 462 kts | 287° |
| 2026-05-04 14:20 | 49.13953 | 12.08453 | 39956 ft | 462 kts | 287° |
| 2026-05-04 14:21 | 49.16749 | 11.95883 | 39962 ft | 461 kts | 286° |
| 2026-05-04 14:21 | 49.18804 | 11.86600 | 39961 ft | 461 kts | 286° |
| 2026-05-04 14:22 | 49.20857 | 11.77279 | 39963 ft | 460 kts | 286° |
| 2026-05-04 14:22 | 49.22892 | 11.67994 | 39956 ft | 461 kts | 286° |
| 2026-05-04 14:23 | 49.25924 | 11.54093 | 39962 ft | 461 kts | 286° |
| 2026-05-04 14:24 | 49.27945 | 11.44770 | 39956 ft | 462 kts | 286° |
| 2026-05-04 14:24 | 49.29961 | 11.35433 | 39964 ft | 462 kts | 286° |
| 2026-05-04 14:25 | 49.32013 | 11.25886 | 39967 ft | 462 kts | 286° |
| 2026-05-04 14:25 | 49.35028 | 11.11773 | 39963 ft | 462 kts | 285° |
| 2026-05-04 14:26 | 49.37020 | 11.02397 | 39969 ft | 462 kts | 285° |
| 2026-05-04 14:26 | 49.39208 | 10.93082 | 39970 ft | 465 kts | 292° |
| 2026-05-04 14:27 | 49.41999 | 10.84108 | 39997 ft | 465 kts | 293° |
| 2026-05-04 14:27 | 49.44908 | 10.75154 | 40011 ft | 466 kts | 294° |
| 2026-05-04 14:28 | 49.47812 | 10.66234 | 39995 ft | 467 kts | 293° |
| 2026-05-04 14:28 | 49.50705 | 10.57277 | 39992 ft | 467 kts | 293° |
| 2026-05-04 14:29 | 49.56425 | 10.39416 | 39998 ft | 466 kts | 293° |
| 2026-05-04 14:30 | 49.59304 | 10.30378 | 39972 ft | 467 kts | 293° |
| 2026-05-04 14:31 | 49.63561 | 10.16950 | 39981 ft | 467 kts | 293° |
| 2026-05-04 14:32 | 49.69206 | 9.99042 | 39978 ft | 459 kts | 292° |
| 2026-05-04 14:32 | 49.71988 | 9.90160 | 39973 ft | 459 kts | 292° |
| 2026-05-04 14:33 | 49.74766 | 9.81262 | 39971 ft | 460 kts | 292° |
| 2026-05-04 14:33 | 49.77552 | 9.72307 | 39975 ft | 460 kts | 292° |
| 2026-05-04 14:34 | 49.80307 | 9.63421 | 39973 ft | 459 kts | 292° |
| 2026-05-04 14:34 | 49.83068 | 9.54483 | 39989 ft | 459 kts | 292° |
| 2026-05-04 14:35 | 49.85818 | 9.45546 | 39977 ft | 460 kts | 292° |
| 2026-05-04 14:35 | 49.88575 | 9.36554 | 39977 ft | 461 kts | 292° |
| 2026-05-04 14:36 | 49.91318 | 9.27577 | 39980 ft | 461 kts | 292° |
| 2026-05-04 14:36 | 49.94053 | 9.18592 | 39978 ft | 461 kts | 292° |
| 2026-05-04 14:37 | 49.96825 | 9.09455 | 39985 ft | 461 kts | 292° |
| 2026-05-04 14:37 | 49.99553 | 9.00422 | 39973 ft | 463 kts | 291° |
| 2026-05-04 14:38 | 50.02283 | 8.91356 | 39971 ft | 463 kts | 291° |
| 2026-05-04 14:38 | 50.05008 | 8.82270 | 39969 ft | 463 kts | 291° |
| 2026-05-04 14:39 | 50.07561 | 8.73084 | 39968 ft | 461 kts | 287° |
| 2026-05-04 14:39 | 50.09685 | 8.63738 | 39966 ft | 460 kts | 286° |
| 2026-05-04 14:40 | 50.12862 | 8.49635 | 39967 ft | 460 kts | 287° |
| 2026-05-04 14:40 | 50.15037 | 8.40267 | 39982 ft | 460 kts | 287° |
| 2026-05-04 14:41 | 50.17225 | 8.30893 | 39983 ft | 460 kts | 287° |
| 2026-05-04 14:42 | 50.21577 | 8.12115 | 39982 ft | 460 kts | 287° |
| 2026-05-04 14:42 | 50.23388 | 8.04241 | 39983 ft | 460 kts | 287° |
| 2026-05-04 14:43 | 50.25562 | 7.94753 | 39977 ft | 460 kts | 286° |
| 2026-05-04 14:43 | 50.27691 | 7.85416 | 39988 ft | 460 kts | 286° |
| 2026-05-04 14:44 | 50.29829 | 7.75997 | 39988 ft | 460 kts | 286° |
| 2026-05-04 14:44 | 50.31965 | 7.66547 | 39988 ft | 460 kts | 286° |
| 2026-05-04 14:45 | 50.34093 | 7.57087 | 39987 ft | 460 kts | 286° |
| 2026-05-04 14:45 | 50.36212 | 7.47631 | 39988 ft | 460 kts | 286° |
| 2026-05-04 14:46 | 50.38324 | 7.38158 | 39995 ft | 460 kts | 286° |
| 2026-05-04 14:46 | 50.40429 | 7.28678 | 39985 ft | 460 kts | 286° |
| 2026-05-04 14:47 | 50.42523 | 7.19200 | 39985 ft | 460 kts | 286° |
| 2026-05-04 14:47 | 50.44612 | 7.09705 | 39987 ft | 460 kts | 286° |
| 2026-05-04 14:48 | 50.46690 | 7.00213 | 39987 ft | 460 kts | 286° |
| 2026-05-04 14:48 | 50.48769 | 6.90676 | 39992 ft | 460 kts | 285° |
| 2026-05-04 14:49 | 50.50832 | 6.81166 | 39982 ft | 460 kts | 285° |
| 2026-05-04 14:49 | 50.52740 | 6.71410 | 39980 ft | 459 kts | 283° |
| 2026-05-04 14:50 | 50.54449 | 6.61688 | 39971 ft | 458 kts | 282° |
| 2026-05-04 14:50 | 50.56161 | 6.52019 | 39970 ft | 458 kts | 282° |
| 2026-05-04 14:51 | 50.57922 | 6.42226 | 39972 ft | 460 kts | 283° |
| 2026-05-04 14:51 | 50.59674 | 6.32521 | 39973 ft | 461 kts | 283° |
| 2026-05-04 14:52 | 50.61418 | 6.22811 | 39976 ft | 461 kts | 283° |
| 2026-05-04 14:52 | 50.63168 | 6.13008 | 39984 ft | 461 kts | 283° |
| 2026-05-04 14:53 | 50.64893 | 6.03285 | 39985 ft | 461 kts | 283° |
| 2026-05-04 14:53 | 50.66615 | 5.93522 | 39984 ft | 463 kts | 283° |
| 2026-05-04 14:54 | 50.68334 | 5.83730 | 39986 ft | 463 kts | 282° |
| 2026-05-04 14:54 | 50.70045 | 5.73925 | 39985 ft | 463 kts | 282° |
| 2026-05-04 14:55 | 50.71746 | 5.64126 | 39986 ft | 463 kts | 282° |
| 2026-05-04 14:55 | 50.73441 | 5.54305 | 39993 ft | 464 kts | 282° |
| 2026-05-04 14:56 | 50.75129 | 5.44464 | 39997 ft | 465 kts | 282° |
| 2026-05-04 14:56 | 50.76822 | 5.34547 | 39996 ft | 465 kts | 282° |
| 2026-05-04 14:57 | 50.78511 | 5.24595 | 39992 ft | 465 kts | 282° |
| 2026-05-04 14:57 | 50.80169 | 5.14768 | 39975 ft | 465 kts | 282° |
| 2026-05-04 14:58 | 50.81842 | 5.04793 | 39973 ft | 467 kts | 282° |
| 2026-05-04 14:58 | 50.83235 | 4.96441 | 39973 ft | 467 kts | 282° |
| 2026-05-04 14:59 | 50.85151 | 4.84897 | 39978 ft | 467 kts | 282° |
| 2026-05-04 15:00 | 50.87611 | 4.69953 | 39973 ft | 467 kts | 282° |
| 2026-05-04 15:00 | 50.89247 | 4.59937 | 39966 ft | 470 kts | 282° |
| 2026-05-04 15:01 | 50.91728 | 4.50148 | 39968 ft | 476 kts | 296° |
| 2026-05-04 15:01 | 50.93361 | 4.45586 | 39965 ft | 476 kts | 298° |
| 2026-05-04 15:01 | 50.96226 | 4.38040 | 39965 ft | 477 kts | 299° |
| 2026-05-04 15:02 | 50.99708 | 4.29060 | 39965 ft | 477 kts | 299° |
| 2026-05-04 15:02 | 51.03168 | 4.20068 | 39967 ft | 477 kts | 298° |
| 2026-05-04 15:03 | 51.06600 | 4.11057 | 39969 ft | 477 kts | 298° |
| 2026-05-04 15:03 | 51.10025 | 4.02008 | 39967 ft | 477 kts | 298° |
| 2026-05-04 15:04 | 51.13440 | 3.92950 | 39967 ft | 477 kts | 298° |
| 2026-05-04 15:04 | 51.16856 | 3.83862 | 39968 ft | 477 kts | 298° |
| 2026-05-04 15:05 | 51.20257 | 3.74783 | 39972 ft | 477 kts | 298° |
| 2026-05-04 15:05 | 51.23676 | 3.65622 | 39966 ft | 477 kts | 298° |
| 2026-05-04 15:06 | 51.27053 | 3.56557 | 39969 ft | 477 kts | 298° |
| 2026-05-04 15:07 | 51.32141 | 3.42801 | 39977 ft | 477 kts | 298° |
| 2026-05-04 15:07 | 51.35233 | 3.33444 | 39990 ft | 475 kts | 290° |
| 2026-05-04 15:08 | 51.37681 | 3.23629 | 39983 ft | 475 kts | 289° |
| 2026-05-04 15:08 | 51.40028 | 3.13673 | 39986 ft | 475 kts | 288° |
| 2026-05-04 15:09 | 51.42432 | 3.03389 | 39986 ft | 475 kts | 288° |
| 2026-05-04 15:09 | 51.44699 | 2.93684 | 39985 ft | 475 kts | 288° |
| 2026-05-04 15:10 | 51.47019 | 2.83733 | 39499 ft | 476 kts | 288° |
| 2026-05-04 15:10 | 51.48177 | 2.78758 | 38928 ft | 476 kts | 288° |
| 2026-05-04 15:10 | 51.50488 | 2.68799 | 37532 ft | 476 kts | 287° |
| 2026-05-04 15:11 | 51.51638 | 2.63826 | 36866 ft | 474 kts | 287° |
| 2026-05-04 15:11 | 51.52798 | 2.58800 | 36195 ft | 473 kts | 287° |
| 2026-05-04 15:11 | 51.53931 | 2.53878 | 35513 ft | 473 kts | 286° |
| 2026-05-04 15:11 | 51.55070 | 2.48917 | 34847 ft | 473 kts | 286° |
| 2026-05-04 15:12 | 51.56204 | 2.43987 | 34321 ft | 469 kts | 286° |
| 2026-05-04 15:12 | 51.57325 | 2.39081 | 33764 ft | 465 kts | 286° |
| 2026-05-04 15:12 | 51.58430 | 2.34225 | 33198 ft | 460 kts | 286° |
| 2026-05-04 15:12 | 51.59525 | 2.29419 | 32650 ft | 455 kts | 286° |
| 2026-05-04 15:13 | 51.60609 | 2.24646 | 32126 ft | 451 kts | 286° |
| 2026-05-04 15:13 | 51.61678 | 2.19925 | 31599 ft | 448 kts | 286° |
| 2026-05-04 15:13 | 51.62736 | 2.15242 | 31080 ft | 444 kts | 286° |
| 2026-05-04 15:13 | 51.63787 | 2.10584 | 30565 ft | 441 kts | 286° |
| 2026-05-04 15:14 | 51.64827 | 2.05971 | 30055 ft | 438 kts | 286° |
| 2026-05-04 15:14 | 51.65855 | 2.01377 | 29515 ft | 434 kts | 286° |
| 2026-05-04 15:14 | 51.66872 | 1.96820 | 28976 ft | 429 kts | 286° |
| 2026-05-04 15:14 | 51.67874 | 1.92326 | 28493 ft | 424 kts | 287° |
| 2026-05-04 15:15 | 51.68864 | 1.87877 | 28000 ft | 420 kts | 287° |
| 2026-05-04 15:15 | 51.69845 | 1.83466 | 27498 ft | 415 kts | 287° |
| 2026-05-04 15:15 | 51.70818 | 1.79077 | 27004 ft | 411 kts | 287° |
| 2026-05-04 15:16 | 51.72723 | 1.70464 | 26037 ft | 404 kts | 287° |
| 2026-05-04 15:16 | 51.73674 | 1.66148 | 25545 ft | 401 kts | 287° |
| 2026-05-04 15:16 | 51.74628 | 1.57482 | 24617 ft | 393 kts | 270° |
| 2026-05-04 15:17 | 51.75087 | 1.53098 | 24183 ft | 402 kts | 286° |
| 2026-05-04 15:17 | 51.78379 | 1.45904 | 23281 ft | 410 kts | 322° |
| 2026-05-04 15:17 | 51.80927 | 1.43843 | 22806 ft | 412 kts | 340° |
| 2026-05-04 15:18 | 51.83752 | 1.43148 | 22319 ft | 411 kts | 359° |
| 2026-05-04 15:18 | 51.86563 | 1.43897 | 21840 ft | 409 kts | 18° |
| 2026-05-04 15:18 | 51.89074 | 1.46002 | 21372 ft | 408 kts | 36° |
| 2026-05-04 15:19 | 51.92290 | 1.53329 | 20459 ft | 401 kts | 74° |
| 2026-05-04 15:19 | 51.92668 | 1.57743 | 20006 ft | 395 kts | 93° |
| 2026-05-04 15:19 | 51.90793 | 1.65903 | 19119 ft | 382 kts | 131° |
| 2026-05-04 15:20 | 51.88798 | 1.68658 | 18678 ft | 375 kts | 151° |
| 2026-05-04 15:20 | 51.86482 | 1.70472 | 18503 ft | 366 kts | 159° |
| 2026-05-04 15:20 | 51.84029 | 1.71671 | 18495 ft | 368 kts | 171° |
| 2026-05-04 15:20 | 51.81482 | 1.71812 | 18489 ft | 366 kts | 189° |
| 2026-05-04 15:21 | 51.79119 | 1.70526 | 18393 ft | 365 kts | 209° |
| 2026-05-04 15:21 | 51.77193 | 1.67866 | 18154 ft | 366 kts | 230° |
| 2026-05-04 15:21 | 51.74787 | 1.60681 | 17609 ft | 366 kts | 251° |
| 2026-05-04 15:22 | 51.74274 | 1.56602 | 17340 ft | 366 kts | 262° |
| 2026-05-04 15:22 | 51.74054 | 1.52518 | 17074 ft | 365 kts | 264° |
| 2026-05-04 15:22 | 51.73712 | 1.45765 | 16638 ft | 362 kts | 263° |
| 2026-05-04 15:23 | 51.73477 | 1.41685 | 16389 ft | 360 kts | 263° |
| 2026-05-04 15:23 | 51.73230 | 1.37659 | 16133 ft | 359 kts | 263° |
| 2026-05-04 15:23 | 51.72965 | 1.33490 | 15987 ft | 359 kts | 263° |
| 2026-05-04 15:23 | 51.72704 | 1.29436 | 15997 ft | 358 kts | 263° |
| 2026-05-04 15:24 | 51.72178 | 1.21435 | 16001 ft | 357 kts | 263° |
| 2026-05-04 15:24 | 51.71620 | 1.13109 | 16001 ft | 358 kts | 263° |
| 2026-05-04 15:25 | 51.71354 | 1.09163 | 16010 ft | 358 kts | 263° |
| 2026-05-04 15:25 | 51.71083 | 1.05170 | 16004 ft | 357 kts | 262° |
| 2026-05-04 15:25 | 51.70811 | 1.01182 | 16005 ft | 357 kts | 262° |
| 2026-05-04 15:26 | 51.70254 | 0.93067 | 15723 ft | 357 kts | 262° |
| 2026-05-04 15:26 | 51.69983 | 0.89136 | 15300 ft | 354 kts | 262° |
| 2026-05-04 15:26 | 51.69431 | 0.81257 | 14480 ft | 344 kts | 262° |
| 2026-05-04 15:27 | 51.69167 | 0.77497 | 14024 ft | 324 kts | 262° |
| 2026-05-04 15:27 | 51.68674 | 0.70541 | 13202 ft | 306 kts | 263° |
| 2026-05-04 15:28 | 51.68208 | 0.63954 | 12722 ft | 295 kts | 263° |
| 2026-05-04 15:28 | 51.67973 | 0.60697 | 12345 ft | 292 kts | 262° |
| 2026-05-04 15:28 | 51.67503 | 0.54237 | 11662 ft | 289 kts | 263° |
| 2026-05-04 15:29 | 51.67267 | 0.51007 | 11283 ft | 288 kts | 263° |
| 2026-05-04 15:30 | 51.66343 | 0.38380 | 9820 ft | 279 kts | 262° |
| 2026-05-04 15:30 | 51.65654 | 0.29131 | 8796 ft | 272 kts | 262° |
| 2026-05-04 15:31 | 51.65276 | 0.24084 | 8385 ft | 254 kts | 262° |
| 2026-05-04 15:31 | 51.65070 | 0.21327 | 7928 ft | 244 kts | 262° |
| 2026-05-04 15:32 | 51.64651 | 0.13267 | 7073 ft | 232 kts | 270° |
| 2026-05-04 15:32 | 51.64804 | 0.08025 | 7015 ft | 236 kts | 272° |
| 2026-05-04 15:33 | 51.64974 | 0.02663 | 6998 ft | 235 kts | 271° |
| 2026-05-04 15:34 | 51.65209 | -0.05353 | 7033 ft | 239 kts | 271° |
| 2026-05-04 15:34 | 51.65285 | -0.07973 | 7038 ft | 239 kts | 271° |
| 2026-05-04 15:34 | 51.65175 | -0.13260 | 7027 ft | 236 kts | 251° |
| 2026-05-04 15:35 | 51.62994 | -0.17104 | 6694 ft | 231 kts | 214° |
| 2026-05-04 15:35 | 51.61649 | -0.18544 | 6491 ft | 234 kts | 213° |
| 2026-05-04 15:35 | 51.60298 | -0.19948 | 6306 ft | 228 kts | 210° |
| 2026-05-04 15:36 | 51.57265 | -0.20382 | 5855 ft | 225 kts | 155° |
| 2026-05-04 15:36 | 51.56073 | -0.18805 | 5451 ft | 229 kts | 130° |
| 2026-05-04 15:36 | 51.55128 | -0.16762 | 5097 ft | 229 kts | 125° |
| 2026-05-04 15:37 | 51.54205 | -0.14679 | 4778 ft | 229 kts | 125° |
| 2026-05-04 15:37 | 51.53279 | -0.12611 | 4454 ft | 228 kts | 125° |
| 2026-05-04 15:37 | 51.52366 | -0.10591 | 4173 ft | 226 kts | 125° |